Time;durP1;ratioP1;P1;durP2;ratioP2;P2;SDS_P1;SDS_P2;PMS_P1;PMS_P2;Temp;Humidity;BMP_temperature;BMP_pressure;BME280_temperature;BME280_humidity;BME280_pressure;Samples;Min_cycle;Max_cycle;Signal;HPM_P1;HPM_P2
2021/10/12 00:40:10;;;;;;;2.80;0.80;;;17.10;73.70;;;;;;10453289;28;20316;-53
2021/10/12 00:45:33;;;;;;;0.70;0.60;;;17.10;73.80;;;;;;10452276;28;20232;-55
2021/10/12 00:50:55;;;;;;;1.33;0.60;;;17.00;73.80;;;;;;10450743;28;20224;-53
2021/10/12 00:56:19;;;;;;;1.90;0.60;;;17.10;73.80;;;;;;10452805;28;20232;-56
2021/10/12 01:01:41;;;;;;;2.97;0.80;;;17.10;73.80;;;;;;10453629;28;20189;-57
2021/10/12 01:07:04;;;;;;;2.43;0.70;;;17.10;73.70;;;;;;10454338;28;20217;-54
2021/10/12 01:12:27;;;;;;;1.80;0.80;;;17.10;73.80;;;;;;10452839;28;20672;-55
2021/10/12 01:17:49;;;;;;;1.33;0.60;;;17.10;73.80;;;;;;10452300;28;20303;-54
2021/10/12 01:23:14;;;;;;;2.07;0.80;;;17.10;73.70;;;;;;10453811;28;20197;-53
2021/10/12 01:28:36;;;;;;;1.97;0.80;;;17.10;73.70;;;;;;10450908;28;20230;-54
2021/10/12 01:33:59;;;;;;;1.27;0.60;;;17.10;73.70;;;;;;10452467;28;20708;-55
2021/10/12 01:39:22;;;;;;;1.17;0.60;;;17.10;73.70;;;;;;10451799;28;20220;-54
2021/10/12 01:44:44;;;;;;;0.80;0.47;;;17.10;73.70;;;;;;10453185;28;20189;-55
2021/10/12 01:50:13;;;;;;;0.70;0.43;;;17.10;73.60;;;;;;10444643;28;20291;-54
2021/10/12 01:55:36;;;;;;;1.57;0.90;;;17.10;73.60;;;;;;10452084;28;20212;-53
2021/10/12 02:00:59;;;;;;;1.13;0.57;;;17.10;73.60;;;;;;10450414;28;20193;-56
2021/10/12 02:06:21;;;;;;;1.53;0.80;;;17.10;73.50;;;;;;10452028;28;20249;-57
2021/10/12 02:11:45;;;;;;;2.27;0.60;;;17.10;73.50;;;;;;10451189;28;20225;-55
2021/10/12 02:17:07;;;;;;;2.97;0.70;;;17.10;73.50;;;;;;10451328;28;20208;-53
2021/10/12 02:22:29;;;;;;;2.10;0.50;;;17.10;73.50;;;;;;10450653;28;20185;-54
2021/10/12 02:27:53;;;;;;;2.03;0.80;;;17.10;73.50;;;;;;10444352;28;20216;-53
2021/10/12 02:33:15;;;;;;;1.03;0.60;;;17.10;73.40;;;;;;10463501;28;20212;-55
2021/10/12 02:38:37;;;;;;;1.30;0.60;;;17.10;73.50;;;;;;10465564;28;20213;-56
2021/10/12 02:44:01;;;;;;;3.03;1.00;;;17.10;73.50;;;;;;10463209;28;20220;-55
2021/10/12 02:49:23;;;;;;;1.53;0.63;;;17.10;73.50;;;;;;10462174;28;20216;-53
2021/10/12 02:54:45;;;;;;;1.37;0.50;;;17.20;73.50;;;;;;10465405;28;20219;-55
2021/10/12 03:00:10;;;;;;;1.37;0.63;;;17.10;73.50;;;;;;10463488;28;20227;-54
2021/10/12 03:05:32;;;;;;;1.77;0.67;;;17.10;73.60;;;;;;10463277;28;20185;-53
2021/10/12 03:10:54;;;;;;;1.57;0.80;;;17.10;73.60;;;;;;10456982;28;20209;-55
2021/10/12 03:16:18;;;;;;;1.60;0.67;;;17.10;73.50;;;;;;10464876;28;20207;-54
2021/10/12 03:21:49;;;;;;;1.87;0.60;;;17.20;74.10;;;;;;10464716;28;20559;-55
2021/10/12 03:27:13;;;;;;;0.73;0.57;;;17.10;73.50;;;;;;10464578;28;20223;-55
2021/10/12 03:32:36;;;;;;;1.17;0.50;;;17.20;73.60;;;;;;10462779;28;20219;-53
2021/10/12 03:37:58;;;;;;;1.43;0.50;;;17.10;73.50;;;;;;10463401;28;20239;-56
2021/10/12 03:43:21;;;;;;;1.00;0.37;;;17.20;73.50;;;;;;10458049;28;20185;-54
2021/10/12 03:48:45;;;;;;;0.90;0.50;;;17.20;73.50;;;;;;10456449;28;20213;-59
2021/10/12 03:54:07;;;;;;;0.97;0.47;;;17.20;73.50;;;;;;10456854;28;20738;-53
2021/10/12 03:59:29;;;;;;;1.63;0.50;;;17.30;73.50;;;;;;10463253;28;20225;-56
2021/10/12 04:04:52;;;;;;;1.70;0.33;;;17.30;73.50;;;;;;10449927;28;20197;-53
2021/10/12 04:10:15;;;;;;;0.60;0.40;;;17.30;73.40;;;;;;10455499;28;20271;-57
2021/10/12 04:15:37;;;;;;;0.83;0.50;;;17.30;73.40;;;;;;10456926;28;20834;-55
2021/10/12 04:21:00;;;;;;;0.90;0.37;;;17.30;73.40;;;;;;10454972;28;20721;-57
2021/10/12 04:26:24;;;;;;;0.47;0.40;;;17.30;73.40;;;;;;10455528;28;20785;-53
2021/10/12 04:31:46;;;;;;;0.50;0.40;;;17.30;73.40;;;;;;10454098;28;20231;-56
2021/10/12 04:37:10;;;;;;;0.70;0.40;;;17.30;73.40;;;;;;10455592;28;20545;-56
2021/10/12 04:42:32;;;;;;;0.80;0.40;;;17.40;73.70;;;;;;10454844;28;20687;-55
2021/10/12 04:47:55;;;;;;;0.63;0.43;;;17.40;73.40;;;;;;10454129;28;20221;-52
2021/10/12 04:53:19;;;;;;;1.83;0.60;;;17.40;73.40;;;;;;10452324;28;20548;-58
2021/10/12 04:58:41;;;;;;;0.67;0.40;;;17.40;73.40;;;;;;10452676;28;20212;-56
2021/10/12 05:04:03;;;;;;;0.47;0.37;;;17.40;73.90;;;;;;10452587;28;20189;-55
2021/10/12 05:09:26;;;;;;;0.97;0.40;;;17.50;73.40;;;;;;10453510;28;20695;-55
2021/10/12 05:14:48;;;;;;;0.93;0.50;;;17.50;73.30;;;;;;10454279;28;20211;-56
2021/10/12 05:20:11;;;;;;;1.17;0.40;;;17.50;73.30;;;;;;10449237;28;20212;-56
2021/10/12 05:25:34;;;;;;;0.80;0.53;;;17.50;73.30;;;;;;10453049;28;20189;-52
2021/10/12 05:30:57;;;;;;;1.47;0.50;;;17.50;73.50;;;;;;10452164;28;20197;-55
2021/10/12 05:36:19;;;;;;;1.07;0.50;;;17.50;73.50;;;;;;10453109;28;20208;-54
2021/10/12 05:41:42;;;;;;;2.97;0.53;;;17.50;73.50;;;;;;10451441;28;20184;-53
2021/10/12 05:47:05;;;;;;;1.33;0.40;;;17.50;73.50;;;;;;10450486;28;20216;-56
2021/10/12 05:52:27;;;;;;;0.93;0.50;;;17.40;73.50;;;;;;10451786;28;20208;-53
2021/10/12 05:58:06;;;;;;;1.30;0.40;;;17.40;73.50;;;;;;10432376;22;20697;-56
2021/10/12 06:03:28;;;;;;;1.93;0.60;;;17.50;73.60;;;;;;10361140;28;20196;-52
2021/10/12 06:08:50;;;;;;;2.03;0.37;;;17.50;73.50;;;;;;10326078;28;20223;-50
2021/10/12 06:14:14;;;;;;;0.70;0.47;;;17.50;73.50;;;;;;10310473;28;20574;-52
2021/10/12 06:19:37;;;;;;;2.50;0.47;;;17.50;73.40;;;;;;10324338;28;20226;-53
2021/10/12 06:24:59;;;;;;;1.20;0.50;;;17.50;73.40;;;;;;10328049;28;20199;-50
2021/10/12 06:30:22;;;;;;;0.40;0.30;;;17.50;73.40;;;;;;10325468;28;20215;-50
2021/10/12 06:35:44;;;;;;;0.40;0.40;;;17.50;73.50;;;;;;10327560;28;20229;-54
2021/10/12 06:41:06;;;;;;;0.83;0.30;;;17.60;73.50;;;;;;10328945;28;20203;-51
2021/10/12 06:46:30;;;;;;;1.00;0.30;;;17.60;73.50;;;;;;10316609;28;20206;-51
2021/10/12 06:51:52;;;;;;;1.03;0.30;;;17.60;73.60;;;;;;10322282;28;20701;-53
2021/10/12 06:57:14;;;;;;;0.77;0.30;;;17.60;73.60;;;;;;10325157;28;20230;-53
2021/10/12 07:02:38;;;;;;;0.87;0.33;;;17.50;73.60;;;;;;10322695;28;20826;-47
2021/10/12 07:08:00;;;;;;;1.73;0.37;;;17.60;73.70;;;;;;10325024;28;20230;-51
2021/10/12 07:13:26;;;;;;;2.27;0.43;;;17.50;73.60;;;;;;10325810;28;20226;-49
2021/10/12 07:18:50;;;;;;;0.50;0.33;;;17.50;73.60;;;;;;10329990;28;20223;-44
2021/10/12 07:24:12;;;;;;;1.20;0.43;;;17.60;73.70;;;;;;10332568;28;20195;-47
2021/10/12 07:29:35;;;;;;;2.33;0.30;;;17.60;73.70;;;;;;10333536;28;20227;-48
2021/10/12 07:35:00;;;;;;;1.23;0.40;;;17.60;73.70;;;;;;10321929;28;20223;-54
2021/10/12 07:40:22;;;;;;;1.13;0.40;;;17.60;73.80;;;;;;10332320;28;20214;-46
2021/10/12 07:45:45;;;;;;;0.90;0.30;;;17.60;73.80;;;;;;10334195;28;20574;-53
2021/10/12 07:51:09;;;;;;;1.17;0.50;;;17.60;73.70;;;;;;10332878;28;20234;-52
2021/10/12 07:56:37;;;;;;;0.20;0.20;;;17.60;73.80;;;;;;10331885;28;20223;-48
2021/10/12 08:01:59;;;;;;;2.73;0.80;;;17.60;73.80;;;;;;10333311;28;20265;-49
2021/10/12 08:07:22;;;;;;;1.10;0.30;;;17.60;73.80;;;;;;10333645;28;20230;-52
2021/10/12 08:12:46;;;;;;;1.60;0.50;;;17.60;73.80;;;;;;10317677;28;20294;-51
2021/10/12 08:18:08;;;;;;;0.90;0.40;;;17.60;73.90;;;;;;10333100;28;20362;-47
2021/10/12 08:23:32;;;;;;;0.90;0.40;;;17.60;73.90;;;;;;10333141;28;20195;-52
2021/10/12 08:28:55;;;;;;;0.83;0.60;;;17.60;74.00;;;;;;10330562;28;20222;-50
2021/10/12 08:34:17;;;;;;;0.77;0.40;;;17.60;74.00;;;;;;10331489;28;20219;-48
2021/10/12 08:39:43;;;;;;;0.70;0.40;;;17.70;74.00;;;;;;10330395;28;20242;-48
2021/10/12 08:45:08;;;;;;;1.57;0.40;;;17.70;74.10;;;;;;10332701;28;20195;-52
2021/10/12 08:50:31;;;;;;;1.03;0.30;;;17.70;74.10;;;;;;10331738;28;20590;-47
2021/10/12 08:55:54;;;;;;;1.00;0.57;;;17.70;74.10;;;;;;10330896;28;20258;-47
2021/10/12 09:01:17;;;;;;;1.43;0.50;;;17.60;74.10;;;;;;10317060;28;20203;-49
2021/10/12 09:06:39;;;;;;;0.33;0.30;;;17.70;74.20;;;;;;10329195;28;20219;-48
2021/10/12 09:12:03;;;;;;;0.90;0.40;;;17.70;74.30;;;;;;10329959;28;20694;-51
2021/10/12 09:17:32;;;;;;;0.70;0.40;;;17.70;74.30;;;;;;10329116;28;20226;-54
2021/10/12 09:23:13;;;;;;;2.30;0.53;;;17.70;74.30;;;;;;10322475;28;20213;-50
2021/10/12 09:28:38;;;;;;;0.90;0.30;;;17.60;74.20;;;;;;10330608;28;20219;-47
2021/10/12 09:34:03;;;;;;;0.40;0.30;;;17.70;74.40;;;;;;10329286;28;20249;-53
2021/10/12 09:39:34;;;;;;;0.90;0.57;;;17.70;74.40;;;;;;10329547;28;20215;-51
2021/10/12 09:44:59;;;;;;;0.67;0.30;;;17.60;74.30;;;;;;10329791;28;20196;-47
2021/10/12 09:50:31;;;;;;;1.10;0.40;;;17.70;74.40;;;;;;10329823;28;20312;-53
2021/10/12 09:55:54;;;;;;;1.13;0.50;;;17.70;74.30;;;;;;10324795;28;20255;-49
2021/10/12 10:01:18;;;;;;;2.17;0.50;;;17.70;74.30;;;;;;10329759;28;20203;-58
2021/10/12 10:06:42;;;;;;;0.47;0.30;;;17.70;74.30;;;;;;10340789;28;20223;-50
2021/10/12 10:12:07;;;;;;;0.97;0.30;;;17.70;75.00;;;;;;10328443;28;20199;-69
2021/10/12 10:17:32;;;;;;;1.57;0.50;;;17.80;75.40;;;;;;10334069;28;20223;-49
2021/10/12 10:22:57;;;;;;;2.40;0.40;;;17.80;75.10;;;;;;10328436;28;20210;-49
2021/10/12 10:28:23;;;;;;;0.80;0.37;;;17.80;74.60;;;;;;10328380;28;20211;-49
2021/10/12 10:33:49;;;;;;;0.63;0.40;;;17.80;74.50;;;;;;10324379;28;20223;-56
2021/10/12 10:39:36;;;;;;;0.97;0.40;;;17.70;74.40;;;;;;10325808;28;20223;-47
2021/10/12 10:45:00;;;;;;;1.23;0.30;;;17.80;74.20;;;;;;10326925;28;20202;-50
2021/10/12 10:50:28;;;;;;;1.93;0.40;;;17.80;74.40;;;;;;10324165;28;20215;-56
2021/10/12 10:56:00;;;;;;;1.30;0.40;;;17.80;74.40;;;;;;10331441;28;20215;-52
2021/10/12 11:01:35;;;;;;;0.57;0.30;;;17.80;74.60;;;;;;10332718;28;20206;-54
2021/10/12 11:07:02;;;;;;;0.40;0.30;;;17.80;74.60;;;;;;10330390;28;20226;-55
2021/10/12 11:12:25;;;;;;;0.30;0.20;;;17.80;74.40;;;;;;10331392;28;20218;-52
2021/10/12 11:18:04;;;;;;;0.37;0.20;;;17.90;74.30;;;;;;10334769;28;20234;-51
2021/10/12 11:23:30;;;;;;;1.00;0.50;;;17.90;74.00;;;;;;10320380;28;20548;-52
2021/10/12 11:28:53;;;;;;;2.40;0.60;;;17.90;74.00;;;;;;10332275;28;20218;-46
2021/10/12 11:34:25;;;;;;;1.40;0.33;;;17.90;74.00;;;;;;10333103;28;20222;-51
2021/10/12 11:39:49;;;;;;;1.30;0.50;;;17.90;73.70;;;;;;10332661;28;20296;-47
2021/10/12 11:45:11;;;;;;;1.70;0.40;;;17.80;73.70;;;;;;10330061;28;20285;-55
2021/10/12 11:50:36;;;;;;;1.27;0.30;;;17.80;73.70;;;;;;10331246;28;20238;-54
2021/10/12 11:56:11;;;;;;;0.83;0.33;;;17.90;73.80;;;;;;10333411;28;20230;-51
2021/10/12 12:01:35;;;;;;;1.13;0.40;;;17.90;73.90;;;;;;10403661;22;20232;-55
2021/10/12 12:06:59;;;;;;;0.93;0.50;;;17.90;74.00;;;;;;10396316;28;20277;-52
2021/10/12 12:12:23;;;;;;;0.87;0.50;;;17.90;74.00;;;;;;10428736;28;20705;-53
2021/10/12 12:17:46;;;;;;;1.27;0.50;;;18.00;73.90;;;;;;10375048;28;20697;-59
2021/10/12 12:23:08;;;;;;;1.60;0.40;;;18.00;73.90;;;;;;10409159;28;20549;-56
2021/10/12 12:28:32;;;;;;;0.53;0.50;;;18.00;74.00;;;;;;10415509;28;20224;-57
2021/10/12 12:33:55;;;;;;;1.23;0.50;;;18.00;74.10;;;;;;10380545;28;20233;-56
2021/10/12 12:39:18;;;;;;;0.93;0.47;;;18.00;74.20;;;;;;10381527;28;20217;-56
2021/10/12 12:44:42;;;;;;;1.13;0.50;;;18.00;74.10;;;;;;10391789;28;20688;-55
2021/10/12 12:50:09;;;;;;;2.10;0.73;;;18.10;74.20;;;;;;10404139;28;20237;-55
2021/10/12 12:55:37;;;;;;;1.27;0.77;;;18.10;74.10;;;;;;10377261;28;20226;-59
2021/10/12 13:01:01;;;;;;;2.10;0.63;;;18.10;74.10;;;;;;10409057;28;20237;-58
2021/10/12 13:06:24;;;;;;;1.00;0.50;;;18.10;74.00;;;;;;10412932;28;20337;-53
2021/10/12 13:11:47;;;;;;;1.50;0.70;;;18.10;74.10;;;;;;10416334;28;20415;-56
2021/10/12 13:17:13;;;;;;;2.33;0.70;;;18.10;73.90;;;;;;10387090;28;20214;-54
2021/10/12 13:22:35;;;;;;;2.70;0.77;;;18.10;73.80;;;;;;10372726;28;20203;-56
2021/10/12 13:27:57;;;;;;;1.27;0.70;;;18.10;73.90;;;;;;10378029;28;20233;-53
2021/10/12 13:33:20;;;;;;;2.10;0.50;;;18.10;74.00;;;;;;10393968;28;20206;-54
2021/10/12 13:38:43;;;;;;;1.13;0.63;;;18.10;74.00;;;;;;10385047;28;20229;-61
2021/10/12 13:44:05;;;;;;;5.53;1.10;;;18.10;74.10;;;;;;10426402;28;20205;-52
2021/10/12 13:49:28;;;;;;;4.30;0.80;;;18.10;74.10;;;;;;10396772;28;20222;-53
2021/10/12 13:54:50;;;;;;;1.97;0.80;;;18.10;74.10;;;;;;10396803;28;20224;-56
2021/10/12 14:00:14;;;;;;;6.37;1.10;;;18.10;74.10;;;;;;10395376;28;20230;-59
2021/10/12 14:05:38;;;;;;;1.73;0.80;;;18.10;74.00;;;;;;10382403;28;20206;-56
2021/10/12 14:11:00;;;;;;;4.50;1.37;;;18.10;74.00;;;;;;10391546;28;20824;-69
2021/10/12 14:16:22;;;;;;;8.07;1.27;;;18.60;72.30;;;;;;10398834;28;20439;-65
2021/10/12 14:21:45;;;;;;;5.87;1.37;;;18.50;73.00;;;;;;10398184;28;20217;-67
2021/10/12 14:27:07;;;;;;;7.30;1.60;;;18.30;73.50;;;;;;10404870;28;20186;-68
2021/10/12 14:32:31;;;;;;;11.63;1.63;;;18.10;73.40;;;;;;10406022;28;20696;-68
2021/10/12 14:37:55;;;;;;;3.47;0.90;;;18.10;73.40;;;;;;10407205;28;20684;-69
2021/10/12 14:43:17;;;;;;;4.20;1.00;;;18.00;73.50;;;;;;10409836;28;20185;-67
2021/10/12 14:48:39;;;;;;;6.37;1.10;;;18.00;73.60;;;;;;10434427;28;20216;-68
2021/10/12 14:54:03;;;;;;;5.63;1.23;;;18.00;73.70;;;;;;10409658;28;20216;-69
2021/10/12 14:59:25;;;;;;;6.03;1.23;;;18.00;73.70;;;;;;10409316;28;20574;-68
2021/10/12 15:04:48;;;;;;;5.80;1.10;;;18.00;73.80;;;;;;10410444;28;20189;-66
2021/10/12 15:10:13;;;;;;;3.20;0.80;;;18.00;73.80;;;;;;10415838;28;20217;-68
2021/10/12 15:15:36;;;;;;;3.73;0.80;;;18.00;73.80;;;;;;10421059;28;20230;-69
2021/10/12 15:20:58;;;;;;;5.30;1.27;;;18.00;73.80;;;;;;10409643;28;20693;-68
2021/10/12 15:26:22;;;;;;;4.37;1.13;;;18.00;73.80;;;;;;10409574;28;20720;-68
2021/10/12 15:31:44;;;;;;;4.10;1.17;;;18.00;73.80;;;;;;10409724;28;20218;-68
2021/10/12 15:37:06;;;;;;;5.93;1.03;;;18.00;73.80;;;;;;10409268;28;20225;-68
2021/10/12 15:42:29;;;;;;;5.03;1.10;;;18.00;73.80;;;;;;10438333;28;20213;-67
2021/10/12 15:47:51;;;;;;;2.30;1.17;;;18.00;73.90;;;;;;10440344;28;20194;-68
2021/10/12 15:53:13;;;;;;;2.90;1.10;;;18.00;74.00;;;;;;10416209;28;20224;-67
2021/10/12 15:58:37;;;;;;;3.57;1.03;;;18.00;74.00;;;;;;10415504;28;20225;-67
2021/10/12 16:03:59;;;;;;;3.90;1.30;;;18.00;74.00;;;;;;10423098;28;20237;-67
2021/10/12 16:09:21;;;;;;;4.70;1.90;;;18.00;74.10;;;;;;10446470;28;20228;-68
2021/10/12 16:26:08;;;;;;;3.27;1.60;;;17.90;74.10;;;;;;10408426;28;20216;-68
2021/10/12 16:31:32;;;;;;;6.53;2.10;;;18.00;74.10;;;;;;10408062;28;20221;-68
2021/10/12 16:36:57;;;;;;;4.37;2.40;;;18.00;74.10;;;;;;10410392;28;20213;-67
2021/10/12 16:42:19;;;;;;;5.27;2.77;;;18.00;74.10;;;;;;10434759;28;20221;-68
2021/10/12 16:47:43;;;;;;;5.83;2.47;;;18.00;74.20;;;;;;10438795;28;20212;-68
2021/10/12 16:53:06;;;;;;;4.47;2.53;;;18.00;74.20;;;;;;10412544;28;20197;-67
2021/10/12 16:58:28;;;;;;;3.03;2.00;;;18.00;74.00;;;;;;10442285;28;20416;-68
2021/10/12 17:03:51;;;;;;;4.70;2.30;;;18.00;73.90;;;;;;10418204;28;20592;-67
2021/10/12 17:09:16;;;;;;;3.80;1.93;;;18.00;73.90;;;;;;10413082;28;20222;-69
2021/10/12 17:14:39;;;;;;;3.50;2.00;;;18.00;74.00;;;;;;10412906;28;20244;-68
2021/10/12 17:20:03;;;;;;;4.57;1.83;;;18.00;74.00;;;;;;10413062;28;20220;-68
2021/10/12 17:25:25;;;;;;;5.37;2.30;;;18.10;74.10;;;;;;10394556;28;20581;-68
2021/10/12 17:30:47;;;;;;;6.87;1.80;;;18.10;74.00;;;;;;10387243;28;20226;-71
2021/10/12 17:36:11;;;;;;;4.97;1.87;;;18.10;74.00;;;;;;10377785;28;20743;-67
2021/10/12 17:41:34;;;;;;;4.07;2.17;;;18.20;74.10;;;;;;10403566;28;20221;-68
2021/10/12 17:46:57;;;;;;;5.53;2.30;;;18.20;74.00;;;;;;10390266;28;20670;-67
2021/10/12 17:52:20;;;;;;;4.40;2.40;;;18.20;73.90;;;;;;10394526;28;20244;-66
2021/10/12 17:57:43;;;;;;;4.40;2.27;;;18.20;73.80;;;;;;10395526;28;20242;-66
2021/10/12 18:03:07;;;;;;;4.37;2.40;;;18.20;74.20;;;;;;10421819;22;20238;-66
2021/10/12 18:08:33;;;;;;;3.80;2.50;;;18.20;74.20;;;;;;10346041;28;20202;-65
2021/10/12 18:13:57;;;;;;;5.03;2.47;;;18.20;74.40;;;;;;10328630;28;20223;-66
2021/10/12 18:19:19;;;;;;;4.47;2.77;;;18.20;74.30;;;;;;10332289;28;20195;-66
2021/10/12 18:24:43;;;;;;;3.57;2.60;;;18.20;74.40;;;;;;10333427;28;20712;-66
2021/10/12 18:30:06;;;;;;;5.73;2.40;;;18.20;74.20;;;;;;10367983;28;20218;-66
2021/10/12 18:35:29;;;;;;;3.87;2.70;;;18.20;74.30;;;;;;10358189;28;20700;-66
2021/10/12 18:40:52;;;;;;;4.87;2.43;;;18.20;74.30;;;;;;10342285;28;20690;-66
2021/10/12 18:46:16;;;;;;;5.37;2.37;;;18.30;74.40;;;;;;10318970;28;20548;-66
2021/10/12 18:51:39;;;;;;;5.17;2.60;;;18.30;74.10;;;;;;10322902;28;20448;-69
2021/10/12 18:57:02;;;;;;;3.83;2.63;;;19.00;71.20;;;;;;10321430;28;20467;-70
2021/10/12 19:02:24;;;;;;;3.07;1.97;;;18.60;72.50;;;;;;10327643;28;20226;-70
2021/10/12 19:07:47;;;;;;;5.60;2.20;;;18.40;73.30;;;;;;10328734;28;20203;-70
2021/10/12 19:13:10;;;;;;;2.90;1.90;;;18.30;73.70;;;;;;10331587;28;20214;-71
2021/10/12 19:18:32;;;;;;;2.53;2.03;;;18.30;73.90;;;;;;10334984;28;20215;-70
2021/10/12 19:23:55;;;;;;;2.83;1.93;;;18.20;73.90;;;;;;10333790;28;20702;-70
2021/10/12 19:29:18;;;;;;;4.60;1.87;;;18.20;73.90;;;;;;10346453;28;20215;-71
2021/10/12 19:34:40;;;;;;;4.87;1.97;;;18.20;74.00;;;;;;10342524;28;20950;-70
2021/10/12 19:40:03;;;;;;;2.57;1.93;;;18.10;73.90;;;;;;10331697;28;20702;-70
2021/10/12 19:45:26;;;;;;;3.47;1.70;;;18.20;74.50;;;;;;10332513;28;20198;-70
2021/10/12 19:50:49;;;;;;;3.03;1.80;;;18.10;73.90;;;;;;10324255;28;20215;-67
2021/10/12 19:56:13;;;;;;;3.77;1.80;;;18.20;73.90;;;;;;10323791;28;20310;-68
2021/10/12 20:01:43;;;;;;;2.33;1.73;;;18.20;73.90;;;;;;10325347;28;20745;-68
2021/10/12 20:07:08;;;;;;;3.23;1.80;;;18.10;73.80;;;;;;10318698;28;20253;-69
2021/10/12 20:12:30;;;;;;;2.37;1.57;;;18.10;73.80;;;;;;10321150;28;20237;-70
2021/10/12 20:17:56;;;;;;;3.07;2.00;;;18.20;73.80;;;;;;10319749;28;20222;-70
2021/10/12 20:23:18;;;;;;;2.10;1.90;;;18.10;73.70;;;;;;10319788;28;20347;-69
2021/10/12 20:28:40;;;;;;;2.03;1.50;;;18.10;73.70;;;;;;10318600;28;20199;-70
2021/10/12 20:34:04;;;;;;;2.67;1.80;;;18.20;73.70;;;;;;10329110;28;20222;-70
2021/10/12 20:39:27;;;;;;;3.90;1.73;;;18.20;73.70;;;;;;10330836;28;20446;-70
2021/10/12 20:44:49;;;;;;;2.67;1.67;;;18.10;73.60;;;;;;10331752;28;20227;-70
2021/10/12 20:50:13;;;;;;;2.27;1.40;;;18.10;73.60;;;;;;10330870;28;20695;-70
2021/10/12 20:55:35;;;;;;;2.27;1.50;;;18.10;73.60;;;;;;10329709;28;20215;-69
2021/10/12 21:00:57;;;;;;;1.80;1.53;;;18.10;73.60;;;;;;10330917;28;21277;-70
2021/10/12 21:06:20;;;;;;;1.53;1.30;;;18.10;73.60;;;;;;10330473;28;20188;-70
2021/10/12 21:11:42;;;;;;;2.17;1.37;;;18.00;73.50;;;;;;10331225;28;20226;-70
2021/10/12 21:17:05;;;;;;;3.90;1.70;;;18.00;73.50;;;;;;10330031;28;20219;-70
2021/10/12 21:22:29;;;;;;;1.93;1.60;;;18.00;73.50;;;;;;10330645;28;20215;-70
2021/10/12 21:27:51;;;;;;;2.00;1.40;;;18.00;73.50;;;;;;10321955;28;20194;-68
2021/10/12 21:33:13;;;;;;;2.77;1.70;;;18.00;73.50;;;;;;10330567;28;20290;-70
2021/10/12 21:38:37;;;;;;;3.23;1.40;;;18.00;73.50;;;;;;10330207;28;20218;-70
2021/10/12 21:43:59;;;;;;;2.50;1.50;;;18.00;73.50;;;;;;10297654;28;20275;-70
2021/10/12 21:49:21;;;;;;;2.80;1.60;;;18.00;73.40;;;;;;10326354;28;20202;-69
2021/10/12 21:54:44;;;;;;;2.30;1.60;;;18.00;73.40;;;;;;10330401;28;20689;-70
2021/10/12 22:00:10;;;;;;;2.80;1.50;;;18.00;73.40;;;;;;10329574;28;20211;-70
2021/10/12 22:05:32;;;;;;;3.03;1.47;;;17.90;73.30;;;;;;10330132;28;20210;-70
2021/10/12 22:10:55;;;;;;;2.30;1.60;;;17.90;73.30;;;;;;10329618;28;20215;-70
2021/10/12 22:16:17;;;;;;;1.90;1.50;;;17.90;73.30;;;;;;10331082;28;20223;-70
2021/10/12 22:21:42;;;;;;;2.13;1.40;;;17.90;73.20;;;;;;10329685;28;20223;-70
2021/10/12 22:27:05;;;;;;;2.10;1.43;;;17.90;73.10;;;;;;10324045;28;20195;-70
2021/10/12 22:32:27;;;;;;;2.90;1.73;;;17.90;73.10;;;;;;10328578;28;20225;-70
2021/10/12 22:37:50;;;;;;;3.07;1.77;;;17.90;73.10;;;;;;10328268;28;20567;-69
2021/10/12 22:43:13;;;;;;;1.73;1.40;;;17.90;73.10;;;;;;10327935;28;20608;-70
2021/10/12 22:48:35;;;;;;;1.87;1.43;;;17.90;73.10;;;;;;10332782;28;20198;-70
2021/10/12 22:53:58;;;;;;;2.03;1.60;;;17.90;73.10;;;;;;10330696;28;20234;-69
2021/10/12 22:59:21;;;;;;;2.27;1.40;;;17.90;73.10;;;;;;10332397;28;20686;-70
2021/10/12 23:04:43;;;;;;;1.40;1.27;;;17.90;73.10;;;;;;10335703;28;20222;-69
2021/10/12 23:10:06;;;;;;;1.73;1.60;;;17.90;73.00;;;;;;10336226;28;20393;-69
2021/10/12 23:15:29;;;;;;;1.90;1.67;;;17.90;73.00;;;;;;10336366;28;20211;-71
2021/10/12 23:20:52;;;;;;;1.60;1.20;;;17.90;73.00;;;;;;10334805;28;20219;-69
2021/10/12 23:26:14;;;;;;;1.90;1.37;;;17.80;72.90;;;;;;10335038;28;20235;-70
2021/10/12 23:31:43;;;;;;;2.43;1.30;;;17.90;73.00;;;;;;10335279;28;20568;-69
2021/10/12 23:37:05;;;;;;;1.33;1.10;;;17.90;72.90;;;;;;10331550;28;20246;-70
2021/10/12 23:42:27;;;;;;;1.50;1.00;;;17.90;72.90;;;;;;10335262;28;20219;-70
2021/10/12 23:47:50;;;;;;;0.90;0.90;;;17.90;72.80;;;;;;10310996;28;20191;-70
2021/10/12 23:53:12;;;;;;;0.90;0.90;;;17.90;72.80;;;;;;10334587;28;20611;-70
2021/10/12 23:58:34;;;;;;;1.87;1.20;;;17.90;72.80;;;;;;10332724;28;20215;-70
